createdAt,value
2018-09-01T00:00:09.720Z,1019.32
2018-09-01T00:01:09.686Z,1019.36
2018-09-01T00:02:09.669Z,1019.34
2018-09-01T00:03:09.655Z,1019.31
2018-09-01T00:04:09.636Z,1019.30
2018-09-01T00:05:09.617Z,1019.30
2018-09-01T00:06:09.610Z,1019.31
2018-09-01T00:07:09.602Z,1019.32
2018-09-01T00:08:09.573Z,1019.30
2018-09-01T00:09:09.594Z,1019.31
2018-09-01T00:10:09.534Z,1019.25
2018-09-01T00:11:09.534Z,1019.27
2018-09-01T00:12:09.532Z,1019.31
2018-09-01T00:13:09.483Z,1019.27
2018-09-01T00:14:09.468Z,1019.29
2018-09-01T00:15:09.451Z,1019.30
2018-09-01T00:16:09.446Z,1019.31
2018-09-01T00:17:09.419Z,1019.31
2018-09-01T00:18:09.402Z,1019.27
2018-09-01T00:19:09.388Z,1019.29
2018-09-01T00:20:09.369Z,1019.29
2018-09-01T00:21:09.353Z,1019.33
2018-09-01T00:22:09.336Z,1019.30
2018-09-01T00:23:09.327Z,1019.33
2018-09-01T00:24:09.301Z,1019.32
2018-09-01T00:25:09.283Z,1019.33
2018-09-01T00:26:09.266Z,1019.30
2018-09-01T00:27:09.256Z,1019.26
2018-09-01T00:28:09.231Z,1019.31
2018-09-01T00:29:09.225Z,1019.27
2018-09-01T00:30:09.203Z,1019.28
2018-09-01T00:31:09.190Z,1019.26
2018-09-01T00:32:09.171Z,1019.26
2018-09-01T00:33:09.149Z,1019.25
2018-09-01T00:34:09.133Z,1019.29
2018-09-01T00:35:09.116Z,1019.26
2018-09-01T00:36:09.195Z,1019.28
2018-09-01T00:37:09.082Z,1019.26
2018-09-01T00:38:09.064Z,1019.30
2018-09-01T00:39:09.113Z,1019.28
2018-09-01T00:40:09.030Z,1019.28
2018-09-01T00:41:09.012Z,1019.26
2018-09-01T00:42:08.996Z,1019.28
2018-09-01T00:43:08.984Z,1019.29
2018-09-01T00:44:08.962Z,1019.29
2018-09-01T00:45:08.944Z,1019.28
2018-09-01T00:46:08.940Z,1019.31
2018-09-01T00:47:08.911Z,1019.32
2018-09-01T00:48:08.893Z,1019.31
2018-09-01T00:49:08.889Z,1019.28
2018-09-01T00:50:08.862Z,1019.31
2018-09-01T00:51:08.850Z,1019.29
2018-09-01T00:52:08.834Z,1019.29
2018-09-01T00:53:08.810Z,1019.28
2018-09-01T00:54:08.792Z,1019.33
2018-09-01T00:55:08.774Z,1019.35
2018-09-01T00:56:08.760Z,1019.37
2018-09-01T00:57:08.740Z,1019.32
2018-09-01T00:58:08.748Z,1019.34
2018-09-01T00:59:08.712Z,1019.33
2018-09-01T01:00:08.700Z,1019.33
2018-09-01T01:01:08.673Z,1019.34
2018-09-01T01:02:08.658Z,1019.33
2018-09-01T01:03:08.662Z,1019.35
2018-09-01T01:04:08.628Z,1019.36
2018-09-01T01:05:08.604Z,1019.33
2018-09-01T01:06:08.594Z,1019.38
2018-09-01T01:07:08.568Z,1019.40
2018-09-01T01:08:08.554Z,1019.38
2018-09-01T01:09:08.533Z,1019.39
2018-09-01T01:10:08.519Z,1019.40
2018-09-01T01:11:08.499Z,1019.39
2018-09-01T01:12:08.486Z,1019.38
2018-09-01T01:13:08.467Z,1019.41
2018-09-01T01:14:08.450Z,1019.41
2018-09-01T01:15:08.428Z,1019.40
2018-09-01T01:16:08.409Z,1019.40
2018-09-01T01:17:08.393Z,1019.42
2018-09-01T01:18:08.381Z,1019.39
2018-09-01T01:19:08.368Z,1019.39
2018-09-01T01:20:08.342Z,1019.39
2018-09-01T01:21:08.355Z,1019.39
2018-09-01T01:22:08.320Z,1019.41
2018-09-01T01:23:08.293Z,1019.38
2018-09-01T01:24:08.276Z,1019.33
2018-09-01T01:25:08.258Z,1019.35
2018-09-01T01:26:08.238Z,1019.31
2018-09-01T01:27:08.230Z,1019.34
2018-09-01T01:28:08.209Z,1019.34
2018-09-01T01:29:08.188Z,1019.36
2018-09-01T01:30:08.168Z,1019.38
2018-09-01T01:31:08.150Z,1019.32
2018-09-01T01:32:08.131Z,1019.37
2018-09-01T01:33:08.117Z,1019.37
2018-09-01T01:34:08.100Z,1019.38
2018-09-01T01:35:08.081Z,1019.39
2018-09-01T01:36:08.065Z,1019.37
2018-09-01T01:37:08.046Z,1019.46
2018-09-01T01:38:08.028Z,1019.42
2018-09-01T01:39:08.012Z,1019.44
2018-09-01T01:40:07.996Z,1019.44
2018-09-01T01:41:07.974Z,1019.44
2018-09-01T01:42:07.957Z,1019.44
2018-09-01T01:43:07.939Z,1019.43
2018-09-01T01:44:07.925Z,1019.43
2018-09-01T01:45:07.906Z,1019.38
2018-09-01T01:46:07.886Z,1019.40
2018-09-01T01:47:07.873Z,1019.41
2018-09-01T01:48:07.859Z,1019.40
2018-09-01T01:49:07.836Z,1019.39
2018-09-01T01:50:07.824Z,1019.43
2018-09-01T01:51:07.802Z,1019.41
2018-09-01T01:52:07.783Z,1019.42
2018-09-01T01:53:07.789Z,1019.43
2018-09-01T01:54:07.746Z,1019.44
2018-09-01T01:55:07.740Z,1019.45
2018-09-01T01:56:07.711Z,1019.44
2018-09-01T01:57:07.694Z,1019.46
2018-09-01T01:58:07.674Z,1019.47
2018-09-01T01:59:07.658Z,1019.47
2018-09-01T02:00:07.639Z,1019.51
2018-09-01T02:01:07.627Z,1019.52
2018-09-01T02:02:07.613Z,1019.52
2018-09-01T02:03:07.586Z,1019.52
2018-09-01T02:04:07.575Z,1019.50
2018-09-01T02:05:07.556Z,1019.46
2018-09-01T02:06:07.533Z,1019.53
2018-09-01T02:07:07.518Z,1019.47
2018-09-01T02:08:07.498Z,1019.49
2018-09-01T02:09:07.486Z,1019.48
2018-09-01T02:10:07.465Z,1019.48
2018-09-01T02:11:07.570Z,1019.48
2018-09-01T02:12:07.427Z,1019.47
2018-09-01T02:13:07.419Z,1019.45
2018-09-01T02:14:07.497Z,1019.48
2018-09-01T02:15:07.376Z,1019.46
2018-09-01T02:16:07.364Z,1019.49
2018-09-01T02:17:07.338Z,1019.52
2018-09-01T02:18:07.328Z,1019.51
2018-09-01T02:19:07.303Z,1019.50
2018-09-01T02:20:07.284Z,1019.52
2018-09-01T02:21:07.267Z,1019.51
2018-09-01T02:22:07.248Z,1019.54
2018-09-01T02:23:07.228Z,1019.58
2018-09-01T02:24:07.210Z,1019.57
2018-09-01T02:25:07.193Z,1019.56
2018-09-01T02:26:07.183Z,1019.53
2018-09-01T02:27:07.157Z,1019.57
2018-09-01T02:28:07.143Z,1019.59
2018-09-01T02:29:07.120Z,1019.58
2018-09-01T02:30:07.103Z,1019.57
2018-09-01T02:31:07.085Z,1019.53
2018-09-01T02:32:07.071Z,1019.57
2018-09-01T02:33:07.094Z,1019.55
2018-09-01T02:34:07.041Z,1019.55
2018-09-01T02:35:07.021Z,1019.60
2018-09-01T02:36:07.001Z,1019.55
2018-09-01T02:37:06.977Z,1019.59
2018-09-01T02:38:06.960Z,1019.56
2018-09-01T02:39:06.950Z,1019.60
2018-09-01T02:40:06.924Z,1019.59
2018-09-01T02:41:06.906Z,1019.58
2018-09-01T02:42:06.888Z,1019.59
2018-09-01T02:43:06.881Z,1019.58
2018-09-01T02:44:06.850Z,1019.58
2018-09-01T02:45:06.831Z,1019.60
2018-09-01T02:46:06.814Z,1019.60
2018-09-01T02:47:06.806Z,1019.60
2018-09-01T02:48:06.790Z,1019.61
2018-09-01T02:49:06.761Z,1019.63
2018-09-01T02:50:06.743Z,1019.60
2018-09-01T02:51:06.725Z,1019.59
2018-09-01T02:52:06.710Z,1019.64
2018-09-01T02:53:06.689Z,1019.63
2018-09-01T02:54:06.668Z,1019.65
2018-09-01T02:55:06.652Z,1019.60
2018-09-01T02:56:06.635Z,1019.61
2018-09-01T02:57:06.619Z,1019.59
2018-09-01T02:58:06.599Z,1019.63
2018-09-01T02:59:06.581Z,1019.56
2018-09-01T03:00:06.744Z,1019.54
2018-09-01T03:01:06.541Z,1019.51
2018-09-01T03:02:06.525Z,1019.55
2018-09-01T03:03:06.614Z,1019.54
2018-09-01T03:04:06.496Z,1019.56
2018-09-01T03:05:06.471Z,1019.53
2018-09-01T03:06:06.452Z,1019.55
2018-09-01T03:07:06.434Z,1019.55
2018-09-01T03:08:06.416Z,1019.55
2018-09-01T03:09:06.414Z,1019.53
2018-09-01T03:10:06.379Z,1019.55
2018-09-01T03:11:06.363Z,1019.55
2018-09-01T03:12:06.344Z,1019.51
2018-09-01T03:13:06.333Z,1019.51
2018-09-01T03:14:06.310Z,1019.54
2018-09-01T03:15:06.292Z,1019.54
2018-09-01T03:16:06.270Z,1019.53
2018-09-01T03:17:06.251Z,1019.55
2018-09-01T03:18:06.243Z,1019.57
2018-09-01T03:19:06.229Z,1019.55
2018-09-01T03:20:06.210Z,1019.56
2018-09-01T03:21:06.194Z,1019.57
2018-09-01T03:22:06.235Z,1019.57
2018-09-01T03:23:06.143Z,1019.57
2018-09-01T03:24:06.123Z,1019.62
2018-09-01T03:25:06.108Z,1019.61
2018-09-01T03:26:06.089Z,1019.63
2018-09-01T03:27:06.072Z,1019.59
2018-09-01T03:28:06.051Z,1019.65
2018-09-01T03:29:06.028Z,1019.66
2018-09-01T03:30:06.024Z,1019.66
2018-09-01T03:31:05.998Z,1019.66
2018-09-01T03:32:05.978Z,1019.62
2018-09-01T03:33:05.957Z,1019.65
2018-09-01T03:34:05.942Z,1019.64
2018-09-01T03:35:05.921Z,1019.64
2018-09-01T03:36:05.903Z,1019.61
2018-09-01T03:37:05.886Z,1019.64
2018-09-01T03:38:05.873Z,1019.61
2018-09-01T03:39:05.847Z,1019.61
2018-09-01T03:40:05.828Z,1019.62
2018-09-01T03:41:05.810Z,1019.63
2018-09-01T03:42:05.791Z,1019.64
2018-09-01T03:43:05.776Z,1019.61
2018-09-01T03:44:05.756Z,1019.65
2018-09-01T03:45:05.736Z,1019.62
2018-09-01T03:46:05.880Z,1019.63
2018-09-01T03:47:05.703Z,1019.65
2018-09-01T03:48:05.680Z,1019.64
2018-09-01T03:49:05.724Z,1019.67
2018-09-01T03:50:05.644Z,1019.62
2018-09-01T03:51:05.626Z,1019.68
2018-09-01T03:52:05.656Z,1019.63
2018-09-01T03:53:05.588Z,1019.62
2018-09-01T03:54:05.573Z,1019.59
2018-09-01T03:55:05.550Z,1019.57
2018-09-01T03:56:05.536Z,1019.66
2018-09-01T03:57:05.511Z,1019.65
2018-09-01T03:58:05.493Z,1019.63
2018-09-01T03:59:05.485Z,1019.65
2018-09-01T04:00:05.457Z,1019.67
2018-09-01T04:01:05.439Z,1019.62
2018-09-01T04:02:05.419Z,1019.63
2018-09-01T04:03:05.410Z,1019.63
2018-09-01T04:04:05.383Z,1019.63
2018-09-01T04:05:05.372Z,1019.64
2018-09-01T04:06:05.356Z,1019.67
2018-09-01T04:07:05.326Z,1019.61
2018-09-01T04:08:05.446Z,1019.68
2018-09-01T04:09:05.289Z,1019.65
2018-09-01T04:10:05.273Z,1019.67
2018-09-01T04:11:05.351Z,1019.62
2018-09-01T04:12:05.237Z,1019.68
2018-09-01T04:13:05.215Z,1019.64
2018-09-01T04:14:05.197Z,1019.64
2018-09-01T04:15:05.179Z,1019.60
2018-09-01T04:16:05.163Z,1019.65
2018-09-01T04:17:05.147Z,1019.64
2018-09-01T04:18:05.122Z,1019.67
2018-09-01T04:19:05.108Z,1019.64
2018-09-01T04:20:05.088Z,1019.66
2018-09-01T04:21:05.067Z,1019.69
2018-09-01T04:22:05.048Z,1019.69
2018-09-01T04:23:05.029Z,1019.69
2018-09-01T04:24:05.011Z,1019.68
2018-09-01T04:25:04.993Z,1019.71
2018-09-01T04:26:04.973Z,1019.74
2018-09-01T04:27:05.015Z,1019.78
2018-09-01T04:28:04.936Z,1019.79
2018-09-01T04:29:04.915Z,1019.80
2018-09-01T04:30:04.904Z,1019.76
2018-09-01T04:31:04.882Z,1019.79
2018-09-01T04:32:04.972Z,1019.79
2018-09-01T04:33:04.843Z,1019.78
2018-09-01T04:34:04.821Z,1019.76
2018-09-01T04:35:04.945Z,1019.76
2018-09-01T04:36:04.794Z,1019.76
2018-09-01T04:37:04.766Z,1019.79
2018-09-01T04:38:04.810Z,1019.79
2018-09-01T04:39:04.733Z,1019.80
2018-09-01T04:40:04.712Z,1019.83
2018-09-01T04:41:04.696Z,1019.83
2018-09-01T04:42:04.684Z,1019.86
2018-09-01T04:43:04.662Z,1019.85
2018-09-01T04:44:04.635Z,1019.86
2018-09-01T04:45:04.616Z,1019.86
2018-09-01T04:46:04.599Z,1019.86
2018-09-01T04:47:04.587Z,1019.88
2018-09-01T04:48:04.557Z,1019.88
2018-09-01T04:49:04.541Z,1019.86
2018-09-01T04:50:04.528Z,1019.87
2018-09-01T04:51:04.505Z,1019.89
2018-09-01T04:52:04.485Z,1019.91
2018-09-01T04:53:04.467Z,1019.91
2018-09-01T04:54:04.457Z,1019.95
2018-09-01T04:55:04.436Z,1019.93
2018-09-01T04:56:04.414Z,1019.92
2018-09-01T04:57:04.539Z,1019.96
2018-09-01T04:58:04.372Z,1019.96
2018-09-01T04:59:04.368Z,1019.91
2018-09-01T05:00:04.360Z,1019.98
2018-09-01T05:01:04.481Z,1019.94
2018-09-01T05:02:04.297Z,1019.93
2018-09-01T05:03:04.280Z,1019.93
2018-09-01T05:04:04.259Z,1019.96
2018-09-01T05:05:04.240Z,1019.94
2018-09-01T05:06:04.224Z,1019.97
2018-09-01T05:07:04.202Z,1020.01
2018-09-01T05:08:04.183Z,1019.99
2018-09-01T05:09:04.165Z,1020.02
2018-09-01T05:10:04.149Z,1020.06
2018-09-01T05:11:04.129Z,1020.06
2018-09-01T05:12:04.108Z,1020.08
2018-09-01T05:13:04.099Z,1020.07
2018-09-01T05:14:04.072Z,1020.09
2018-09-01T05:15:04.053Z,1020.10
2018-09-01T05:16:04.087Z,1020.14
2018-09-01T05:17:04.019Z,1020.12
2018-09-01T05:18:04.000Z,1020.10
2018-09-01T05:19:03.996Z,1020.15
2018-09-01T05:20:03.959Z,1020.16
2018-09-01T05:21:03.940Z,1020.13
2018-09-01T05:22:03.920Z,1020.22
2018-09-01T05:23:03.904Z,1020.22
2018-09-01T05:24:03.978Z,1020.21
2018-09-01T05:25:03.868Z,1020.24
2018-09-01T05:26:03.848Z,1020.24
2018-09-01T05:27:03.850Z,1020.25
2018-09-01T05:28:03.813Z,1020.28
2018-09-01T05:29:03.793Z,1020.26
2018-09-01T05:30:03.780Z,1020.29
2018-09-01T05:31:03.758Z,1020.28
2018-09-01T05:32:03.737Z,1020.30
2018-09-01T05:33:03.713Z,1020.30
2018-09-01T05:34:03.700Z,1020.31
2018-09-01T05:35:03.681Z,1020.36
2018-09-01T05:36:03.663Z,1020.39
2018-09-01T05:37:03.641Z,1020.41
2018-09-01T05:38:03.625Z,1020.42
2018-09-01T05:39:03.605Z,1020.44
2018-09-01T05:40:03.586Z,1020.46
2018-09-01T05:41:03.573Z,1020.48
2018-09-01T05:42:03.549Z,1020.48
2018-09-01T05:43:03.621Z,1020.52
2018-09-01T05:44:03.513Z,1020.48
2018-09-01T05:45:03.504Z,1020.50
2018-09-01T05:46:03.556Z,1020.54
2018-09-01T05:47:03.458Z,1020.53
2018-09-01T05:48:03.439Z,1020.55
2018-09-01T05:49:03.469Z,1020.57
2018-09-01T05:50:03.400Z,1020.56
2018-09-01T05:51:03.384Z,1020.57
2018-09-01T05:52:03.365Z,1020.55
2018-09-01T05:53:03.348Z,1020.53
2018-09-01T05:54:03.330Z,1020.59
2018-09-01T05:55:03.321Z,1020.60
2018-09-01T05:56:03.289Z,1020.64
2018-09-01T05:57:03.274Z,1020.70
2018-09-01T05:58:03.252Z,1020.82
2018-09-01T05:59:03.235Z,1020.91
2018-09-01T06:00:03.231Z,1020.93
2018-09-01T06:01:03.203Z,1020.92
2018-09-01T06:02:03.227Z,1020.85
2018-09-01T06:03:03.171Z,1020.90
2018-09-01T06:04:03.150Z,1020.89
2018-09-01T06:05:03.202Z,1020.93
2018-09-01T06:06:03.184Z,1020.97
2018-09-01T06:07:03.094Z,1021.13
2018-09-01T06:08:03.077Z,1021.17
2018-09-01T06:09:03.059Z,1021.27
2018-09-01T06:10:03.044Z,1021.10
2018-09-01T06:11:03.026Z,1021.06
2018-09-01T06:12:03.012Z,1021.02
2018-09-01T06:13:02.991Z,1021.01
2018-09-01T06:14:02.984Z,1020.99
2018-09-01T06:15:02.962Z,1020.95
2018-09-01T06:16:03.046Z,1020.98
2018-09-01T06:17:02.927Z,1020.96
2018-09-01T06:18:02.965Z,1020.97
2018-09-01T06:19:02.923Z,1020.95
2018-09-01T06:20:02.877Z,1020.99
2018-09-01T06:21:02.863Z,1021.04
2018-09-01T06:22:02.845Z,1021.09
2018-09-01T06:23:02.832Z,1021.15
2018-09-01T06:24:02.927Z,1021.18
2018-09-01T06:25:02.802Z,1021.20
2018-09-01T06:26:02.782Z,1021.14
2018-09-01T06:27:02.769Z,1021.14
2018-09-01T06:28:02.748Z,1021.05
2018-09-01T06:29:02.906Z,1021.09
2018-09-01T06:30:02.734Z,1021.04
2018-09-01T06:31:02.721Z,1021.08
2018-09-01T06:32:02.746Z,1021.18
2018-09-01T06:33:02.822Z,1021.18
2018-09-01T06:34:02.655Z,1021.21
2018-09-01T06:35:02.697Z,1021.22
2018-09-01T06:36:02.631Z,1021.17
2018-09-01T06:37:02.606Z,1021.13
2018-09-01T06:38:02.599Z,1021.12
2018-09-01T06:39:02.574Z,1021.08
2018-09-01T06:40:02.561Z,1021.08
2018-09-01T06:41:02.548Z,1021.09
2018-09-01T06:42:02.526Z,1021.08
2018-09-01T06:43:02.595Z,1021.08
2018-09-01T06:44:02.494Z,1021.09
2018-09-01T06:45:02.487Z,1021.07
2018-09-01T06:46:02.461Z,1021.15
2018-09-01T06:47:02.457Z,1021.12
2018-09-01T06:48:02.630Z,1021.15
2018-09-01T06:49:02.413Z,1021.18
2018-09-01T06:50:02.405Z,1021.19
2018-09-01T06:51:02.409Z,1021.19
2018-09-01T06:52:02.367Z,1021.18
2018-09-01T06:53:02.361Z,1021.18
2018-09-01T06:54:02.332Z,1021.17
2018-09-01T06:55:02.326Z,1021.21
2018-09-01T06:56:02.305Z,1021.22
2018-09-01T06:57:02.291Z,1021.27
2018-09-01T06:58:02.274Z,1021.26
2018-09-01T06:59:02.260Z,1021.24
2018-09-01T07:00:02.241Z,1021.29
2018-09-01T07:01:02.219Z,1021.25
2018-09-01T07:02:02.202Z,1021.21
2018-09-01T07:03:02.185Z,1021.23
2018-09-01T07:04:02.168Z,1021.23
2018-09-01T07:05:02.152Z,1021.21
2018-09-01T07:06:02.136Z,1021.27
2018-09-01T07:07:02.119Z,1021.33
2018-09-01T07:08:02.102Z,1021.31
2018-09-01T07:09:02.090Z,1021.34
2018-09-01T07:10:02.073Z,1021.32
2018-09-01T07:11:02.052Z,1021.33
2018-09-01T07:12:02.041Z,1021.32
2018-09-01T07:13:02.023Z,1021.31
2018-09-01T07:14:02.003Z,1021.33
2018-09-01T07:15:02.132Z,1021.29
2018-09-01T07:16:01.972Z,1021.31
2018-09-01T07:17:01.954Z,1021.28
2018-09-01T07:18:01.942Z,1021.30
2018-09-01T07:19:01.922Z,1021.30
2018-09-01T07:20:01.916Z,1021.31
2018-09-01T07:21:01.915Z,1021.33
2018-09-01T07:22:01.893Z,1021.39
2018-09-01T07:23:01.853Z,1021.38
2018-09-01T07:24:01.839Z,1021.35
2018-09-01T07:25:01.826Z,1021.33
2018-09-01T07:26:01.807Z,1021.38
2018-09-01T07:27:01.787Z,1021.37
2018-09-01T07:28:01.773Z,1021.38
2018-09-01T07:29:01.754Z,1021.37
2018-09-01T07:30:01.751Z,1021.36
2018-09-01T07:31:02.004Z,1021.39
2018-09-01T07:32:01.721Z,1021.39
2018-09-01T07:33:01.701Z,1021.43
2018-09-01T07:34:01.704Z,1021.41
2018-09-01T07:35:01.658Z,1021.43
2018-09-01T07:36:01.639Z,1021.43
2018-09-01T07:37:01.677Z,1021.47
2018-09-01T07:38:01.611Z,1021.48
2018-09-01T07:39:01.592Z,1021.49
2018-09-01T07:40:01.576Z,1021.51
2018-09-01T07:41:01.556Z,1021.47
2018-09-01T07:42:01.546Z,1021.49
2018-09-01T07:43:01.535Z,1021.51
2018-09-01T07:44:01.512Z,1021.54
2018-09-01T07:45:01.496Z,1021.59
2018-09-01T07:46:01.487Z,1021.58
2018-09-01T07:47:01.469Z,1021.63
2018-09-01T07:48:01.446Z,1021.61
2018-09-01T07:49:01.440Z,1021.56
2018-09-01T07:50:01.461Z,1021.66
2018-09-01T07:51:01.401Z,1021.67
2018-09-01T07:52:01.407Z,1021.66
2018-09-01T07:53:01.428Z,1021.73
2018-09-01T07:54:01.355Z,1021.79
2018-09-01T07:55:01.342Z,1021.66
2018-09-01T07:56:01.431Z,1021.63
2018-09-01T07:57:01.314Z,1021.60
2018-09-01T07:58:01.295Z,1021.66
2018-09-01T07:59:01.284Z,1021.64
2018-09-01T08:00:01.275Z,1021.63
2018-09-01T08:01:01.313Z,1021.67
2018-09-01T08:02:01.238Z,1021.66
2018-09-01T08:03:01.225Z,1021.73
2018-09-01T08:04:01.221Z,1021.70
2018-09-01T08:05:01.202Z,1021.68
2018-09-01T08:06:01.175Z,1021.69
2018-09-01T08:07:01.166Z,1021.70
2018-09-01T08:08:01.145Z,1021.71
2018-09-01T08:09:01.132Z,1021.72
2018-09-01T08:10:01.117Z,1021.74
2018-09-01T08:11:01.100Z,1021.72
2018-09-01T08:12:01.086Z,1021.73
2018-09-01T08:13:01.074Z,1021.72
2018-09-01T08:14:01.221Z,1021.75
2018-09-01T08:15:01.038Z,1021.74
2018-09-01T08:16:01.027Z,1021.74
2018-09-01T08:17:01.013Z,1021.78
2018-09-01T08:18:01.006Z,1021.77
2018-09-01T08:19:00.995Z,1021.72
2018-09-01T08:20:00.965Z,1021.74
2018-09-01T08:21:00.957Z,1021.71
2018-09-01T08:22:00.935Z,1021.73
2018-09-01T08:23:00.922Z,1021.69
2018-09-01T08:24:00.909Z,1021.80
2018-09-01T08:25:00.908Z,1021.74
2018-09-01T08:26:00.937Z,1021.72
2018-09-01T08:27:00.865Z,1021.73
2018-09-01T08:28:00.847Z,1021.73
2018-09-01T08:29:00.835Z,1021.71
2018-09-01T08:30:00.817Z,1021.74
2018-09-01T08:31:00.804Z,1021.77
2018-09-01T08:32:00.793Z,1021.80
2018-09-01T08:33:00.774Z,1021.77
2018-09-01T08:34:00.863Z,1021.72
2018-09-01T08:35:00.748Z,1021.76
2018-09-01T08:36:00.852Z,1021.76
2018-09-01T08:37:00.715Z,1021.73
2018-09-01T08:38:00.701Z,1021.80
2018-09-01T08:39:00.715Z,1021.78
2018-09-01T08:40:00.701Z,1021.81
2018-09-01T08:41:00.667Z,1021.79
2018-09-01T08:42:00.645Z,1021.79
2018-09-01T08:43:00.633Z,1021.76
2018-09-01T08:44:00.613Z,1021.77
2018-09-01T08:45:00.606Z,1021.75
2018-09-01T08:46:00.583Z,1021.77
2018-09-01T08:47:00.571Z,1021.76
2018-09-01T08:48:00.554Z,1021.77
2018-09-01T08:49:00.540Z,1021.93
2018-09-01T08:50:00.526Z,1021.82
2018-09-01T08:51:00.525Z,1021.77
2018-09-01T08:52:00.508Z,1021.82
2018-09-01T08:53:00.484Z,1021.79
2018-09-01T08:54:00.478Z,1021.84
2018-09-01T08:55:00.454Z,1021.88
2018-09-01T08:56:00.440Z,1021.89
2018-09-01T08:57:00.425Z,1021.85
2018-09-01T08:58:00.415Z,1021.86
2018-09-01T08:59:00.395Z,1021.84
2018-09-01T09:00:00.507Z,1021.88
2018-09-01T09:01:00.368Z,1021.88
2018-09-01T09:02:00.352Z,1021.85
2018-09-01T09:03:00.397Z,1021.89
2018-09-01T09:04:00.326Z,1021.89
2018-09-01T09:05:00.309Z,1021.90
2018-09-01T09:06:00.298Z,1021.89
2018-09-01T09:07:00.281Z,1021.87
2018-09-01T09:08:00.275Z,1021.86
2018-09-01T09:09:00.251Z,1021.90
2018-09-01T09:10:00.247Z,1021.96
2018-09-01T09:11:00.222Z,1022.05
2018-09-01T09:12:00.219Z,1022.11
2018-09-01T09:13:00.198Z,1022.24
2018-09-01T09:14:00.181Z,1022.25
2018-09-01T09:15:00.178Z,1022.27
2018-09-01T09:16:00.167Z,1022.16
2018-09-01T09:17:00.149Z,1022.11
2018-09-01T09:18:00.137Z,1022.08
2018-09-01T09:19:00.245Z,1022.10
2018-09-01T09:20:00.105Z,1022.06
2018-09-01T09:21:00.104Z,1022.05
2018-09-01T09:22:00.116Z,1021.95
2018-09-01T09:23:00.066Z,1021.97
2018-09-01T09:24:00.064Z,1022.00
2018-09-01T09:25:00.063Z,1021.94
2018-09-01T09:26:00.059Z,1021.99
2018-09-01T09:27:00.019Z,1021.98
2018-09-01T09:28:00.009Z,1022.01
2018-09-01T09:29:00.234Z,1022.01
2018-09-01T09:29:59.986Z,1022.19
2018-09-01T09:30:59.979Z,1022.05
2018-09-01T09:31:59.961Z,1021.96
2018-09-01T09:32:59.956Z,1022.07
2018-09-01T09:33:59.944Z,1022.11
2018-09-01T09:35:00.077Z,1022.12
2018-09-01T09:35:59.918Z,1022.26
2018-09-01T09:36:59.917Z,1022.12
2018-09-01T09:37:59.900Z,1022.21
2018-09-01T09:38:59.896Z,1022.16
2018-09-01T09:40:00.144Z,1022.06
2018-09-01T09:40:59.891Z,1022.22
2018-09-01T09:42:00.007Z,1022.21
2018-09-01T09:42:59.929Z,1022.28
2018-09-01T09:43:59.841Z,1022.33
2018-09-01T09:44:59.821Z,1022.36
2018-09-01T09:45:59.808Z,1022.47
2018-09-01T09:46:59.800Z,1022.20
2018-09-01T09:47:59.803Z,1022.24
2018-09-01T09:48:59.780Z,1022.15
2018-09-01T09:49:59.768Z,1022.16
2018-09-01T09:50:59.764Z,1022.45
2018-09-01T09:51:59.747Z,1022.54
2018-09-01T09:52:59.746Z,1022.60
2018-09-01T09:53:59.729Z,1022.21
2018-09-01T09:54:59.720Z,1022.22
2018-09-01T09:55:59.830Z,1022.30
2018-09-01T09:56:59.703Z,1022.29
2018-09-01T09:57:59.693Z,1022.30
2018-09-01T09:58:59.749Z,1022.54
2018-09-01T09:59:59.678Z,1022.65
2018-09-01T10:00:59.784Z,1022.35
2018-09-01T10:01:59.675Z,1022.53
2018-09-01T10:02:59.662Z,1022.56
2018-09-01T10:03:59.655Z,1022.60
2018-09-01T10:04:59.637Z,1022.57
2018-09-01T10:05:59.626Z,1022.55
2018-09-01T10:06:59.623Z,1022.55
2018-09-01T10:07:59.628Z,1022.53
2018-09-01T10:08:59.608Z,1022.34
2018-09-01T10:09:59.605Z,1022.21
2018-09-01T10:10:59.625Z,1022.26
2018-09-01T10:11:59.667Z,1022.25
2018-09-01T10:12:59.582Z,1022.41
2018-09-01T10:13:59.584Z,1022.21
2018-09-01T10:14:59.571Z,1022.21
2018-09-01T10:15:59.635Z,1022.17
2018-09-01T10:16:59.556Z,1022.14
2018-09-01T10:17:59.548Z,1022.14
2018-09-01T10:18:59.553Z,1022.16
2018-09-01T10:19:59.549Z,1022.16
2018-09-01T10:20:59.528Z,1022.14
2018-09-01T10:21:59.523Z,1022.16
2018-09-01T10:22:59.519Z,1022.48
2018-09-01T10:23:59.511Z,1022.53
2018-09-01T10:24:59.504Z,1022.54
2018-09-01T10:25:59.487Z,1022.52
2018-09-01T10:26:59.520Z,1022.36
2018-09-01T10:27:59.485Z,1022.53
2018-09-01T10:28:59.486Z,1022.47
2018-09-01T10:29:59.457Z,1022.43
2018-09-01T10:30:59.449Z,1022.43
2018-09-01T10:31:59.460Z,1022.40
2018-09-01T10:32:59.612Z,1022.16
2018-09-01T10:33:59.440Z,1022.06
2018-09-01T10:34:59.431Z,1022.06
2018-09-01T10:36:00.439Z,1022.22
2018-09-01T10:36:59.417Z,1022.37
2018-09-01T10:37:59.418Z,1022.06
2018-09-01T10:38:59.404Z,1022.10
2018-09-01T10:39:59.395Z,1022.09
2018-09-01T10:40:59.400Z,1022.05
2018-09-01T10:41:59.387Z,1022.04
2018-09-01T10:42:59.376Z,1022.06
2018-09-01T10:43:59.577Z,1022.08
2018-09-01T10:44:59.369Z,1022.04
2018-09-01T10:45:59.398Z,1022.06
2018-09-01T10:46:59.344Z,1022.02
2018-09-01T10:47:59.341Z,1022.04
2018-09-01T10:48:59.335Z,1022.05
2018-09-01T10:49:59.321Z,1022.03
2018-09-01T10:50:59.312Z,1022.01
2018-09-01T10:51:59.309Z,1022.03
2018-09-01T10:52:59.299Z,1022.05
2018-09-01T10:53:59.286Z,1022.02
2018-09-01T10:54:59.282Z,1021.97
2018-09-01T10:55:59.269Z,1021.93
2018-09-01T10:56:59.269Z,1021.97
2018-09-01T10:57:59.260Z,1021.96
2018-09-01T10:58:59.363Z,1021.95
2018-09-01T10:59:59.253Z,1021.94
2018-09-01T11:00:59.239Z,1021.90
2018-09-01T11:01:59.219Z,1021.88
2018-09-01T11:02:59.240Z,1021.90
2018-09-01T11:03:59.188Z,1022.30
2018-09-01T11:04:59.493Z,1022.29
2018-09-01T11:05:59.177Z,1022.31
2018-09-01T11:06:59.161Z,1022.31
2018-09-01T11:07:59.146Z,1022.23
2018-09-01T11:08:59.136Z,1022.33
2018-09-01T11:09:59.139Z,1022.37
2018-09-01T11:10:59.118Z,1022.45
2018-09-01T11:11:59.115Z,1022.53
2018-09-01T11:12:59.096Z,1022.54
2018-09-01T11:13:59.087Z,1022.60
2018-09-01T11:14:59.098Z,1022.59
2018-09-01T11:15:59.074Z,1022.58
2018-09-01T11:16:59.081Z,1022.63
2018-09-01T11:17:59.097Z,1022.31
2018-09-01T11:18:59.055Z,1021.97
2018-09-01T11:19:59.052Z,1022.02
2018-09-01T11:20:59.119Z,1022.78
2018-09-01T11:21:59.035Z,1021.87
2018-09-01T11:22:59.029Z,1021.86
2018-09-01T11:23:59.018Z,1021.84
2018-09-01T11:24:59.018Z,1021.87
2018-09-01T11:25:59.006Z,1022.08
2018-09-01T11:26:59.017Z,1021.95
2018-09-01T11:27:59.087Z,1021.89
2018-09-01T11:28:58.987Z,1021.92
2018-09-01T11:29:58.977Z,1021.98
2018-09-01T11:30:58.971Z,1022.72
2018-09-01T11:31:58.984Z,1022.63
2018-09-01T11:32:58.958Z,1021.81
2018-09-01T11:33:58.953Z,1021.75
2018-09-01T11:34:58.944Z,1021.73
2018-09-01T11:35:58.936Z,1021.70
2018-09-01T11:36:58.926Z,1021.69
2018-09-01T11:37:58.926Z,1021.74
2018-09-01T11:38:58.910Z,1021.75
2018-09-01T11:39:58.910Z,1021.70
2018-09-01T11:40:58.895Z,1021.67
2018-09-01T11:41:58.976Z,1021.70
2018-09-01T11:42:59.027Z,1021.71
2018-09-01T11:43:58.884Z,1021.70
2018-09-01T11:44:58.859Z,1021.69
2018-09-01T11:45:58.853Z,1021.74
2018-09-01T11:46:58.863Z,1021.76
2018-09-01T11:47:58.847Z,1021.70
2018-09-01T11:48:58.829Z,1021.72
2018-09-01T11:49:58.827Z,1021.76
2018-09-01T11:50:58.805Z,1021.83
2018-09-01T11:51:58.815Z,1021.79
2018-09-01T11:52:58.803Z,1021.87
2018-09-01T11:53:58.777Z,1021.80
2018-09-01T11:54:58.902Z,1021.80
2018-09-01T11:55:58.752Z,1021.79
2018-09-01T11:56:58.753Z,1021.78
2018-09-01T11:57:58.743Z,1021.78
2018-09-01T11:58:58.815Z,1021.76
2018-09-01T11:59:58.741Z,1021.72
2018-09-01T12:00:58.721Z,1021.74
2018-09-01T12:01:58.694Z,1021.72
2018-09-01T12:02:58.679Z,1021.71
2018-09-01T12:03:58.703Z,1021.72
2018-09-01T12:04:58.668Z,1021.73